Keeling, Virginia
Current Conditions -  °F | °C
As of 6:53 PM on Thursday 27 Nov 2014 (Local Time) from KDAN Reporting Station
Overcast Overcast  
Wind Chill: 35°   Ceiling: 5000
Heat Index: 41°   Visibility: 10mi
Dew Point: 25°   Wind: 9mph
Humidity: 53%   Direction: 300°WNW
Pressure: 30.2"   Gusts: NA
Location:  36.73°N, 79.3°W
Report Text: KDAN 272353Z AUTO 30008KT 10SM OVC050 05/M04 A3020 RMK AO2 SLP223 T00501039 10089 20050 51032
Loading
Personal Weather Stations






























Interactive Weather Map New forecast layout! Learn more

10-Day Weather Forecast

Advertisements
Track Severe Weather on mobile